createdAt,value
2023-03-22T00:02:55.273Z,7.78
2023-03-22T00:05:58.351Z,7.63
2023-03-22T00:09:00.798Z,7.87
2023-03-22T00:12:02.963Z,7.47
2023-03-22T00:15:05.829Z,7.90
2023-03-22T00:18:08.235Z,7.60
2023-03-22T00:21:15.406Z,7.38
2023-03-22T00:24:17.643Z,7.13
2023-03-22T00:27:19.906Z,7.70
2023-03-22T00:30:22.051Z,7.07
2023-03-22T00:33:24.336Z,7.53
2023-03-22T00:36:26.522Z,6.57
2023-03-22T00:39:28.710Z,7.27
2023-03-22T00:42:31.072Z,7.70
2023-03-22T00:45:36.186Z,6.88
2023-03-22T00:48:38.464Z,7.07
2023-03-22T00:51:40.602Z,6.82
2023-03-22T00:54:42.771Z,6.43
2023-03-22T00:57:44.973Z,6.50
2023-03-22T01:00:48.148Z,6.53
2023-03-22T01:03:50.651Z,6.88
2023-03-22T01:06:59.265Z,6.85
2023-03-22T01:10:01.541Z,6.27
2023-03-22T01:13:04.487Z,6.43
2023-03-22T01:16:07.463Z,6.40
2023-03-22T01:19:09.734Z,6.67
2023-03-22T01:22:12.106Z,6.13
2023-03-22T01:25:14.583Z,7.60
2023-03-22T01:28:16.947Z,7.20
2023-03-22T01:31:19.290Z,6.75
2023-03-22T01:34:22.349Z,7.38
2023-03-22T01:37:27.680Z,8.18
2023-03-22T01:40:29.887Z,7.10
2023-03-22T01:43:32.379Z,7.30
2023-03-22T01:46:34.729Z,7.85
2023-03-22T01:49:37.730Z,10.23
2023-03-22T01:52:40.595Z,9.32
2023-03-22T01:55:47.790Z,8.82
2023-03-22T01:58:57.446Z,8.32
2023-03-22T02:02:07.959Z,7.78
2023-03-22T02:05:12.347Z,7.30
2023-03-22T02:08:15.742Z,7.97
2023-03-22T02:11:33.568Z,7.70
2023-03-22T02:14:44.653Z,8.18
2023-03-22T02:18:38.653Z,8.05
2023-03-22T02:22:01.975Z,7.40
2023-03-22T02:25:23.151Z,6.90
2023-03-22T02:28:56.408Z,7.47
2023-03-22T02:32:17.141Z,8.43
2023-03-22T02:35:42.735Z,7.45
2023-03-22T02:38:57.749Z,8.30
2023-03-22T02:42:16.036Z,7.40
2023-03-22T02:45:44.753Z,7.40
2023-03-22T02:49:02.044Z,7.80
2023-03-22T02:52:17.567Z,7.20
2023-03-22T02:55:46.390Z,7.77
2023-03-22T02:58:53.201Z,6.90
2023-03-22T03:01:57.626Z,7.22
2023-03-22T03:04:59.993Z,8.63
2023-03-22T03:08:02.737Z,7.88
2023-03-22T03:11:07.149Z,7.45
2023-03-22T03:14:20.242Z,7.57
2023-03-22T03:17:32.531Z,6.80
2023-03-22T03:20:56.589Z,7.45
2023-03-22T03:24:27.893Z,7.35
2023-03-22T03:27:38.539Z,7.90
2023-03-22T03:30:49.549Z,7.07
2023-03-22T03:34:00.740Z,7.78
2023-03-22T03:37:15.970Z,7.93
2023-03-22T03:40:23.512Z,7.25
2023-03-22T03:43:25.736Z,6.88
2023-03-22T03:46:29.235Z,7.25
2023-03-22T03:49:31.377Z,7.07
2023-03-22T03:52:34.693Z,7.28
2023-03-22T03:55:37.657Z,7.22
2023-03-22T03:58:40.809Z,7.33
2023-03-22T04:01:53.605Z,7.32
2023-03-22T04:05:00.477Z,7.50
2023-03-22T04:08:02.597Z,7.47
2023-03-22T04:11:05.410Z,6.88
2023-03-22T04:14:08.067Z,8.20
2023-03-22T04:17:10.461Z,7.82
2023-03-22T04:20:13.835Z,7.17
2023-03-22T04:23:16.240Z,7.68
2023-03-22T04:26:21.896Z,7.53
2023-03-22T04:29:40.662Z,7.53
2023-03-22T04:33:07.142Z,8.02
2023-03-22T04:36:43.017Z,8.10
2023-03-22T04:40:08.066Z,7.55
2023-03-22T04:43:19.049Z,7.22
2023-03-22T04:46:27.177Z,7.93
2023-03-22T04:49:38.240Z,7.65
2023-03-22T04:52:40.980Z,7.97
2023-03-22T04:55:43.242Z,8.27
2023-03-22T04:58:46.172Z,7.70
2023-03-22T05:01:49.316Z,8.17
2023-03-22T05:04:54.857Z,8.20
2023-03-22T05:08:10.613Z,7.45
2023-03-22T05:11:16.296Z,7.43
2023-03-22T05:14:25.595Z,6.80
2023-03-22T05:17:28.295Z,7.30
2023-03-22T05:20:32.673Z,7.22
2023-03-22T05:23:51.697Z,7.70
2023-03-22T05:26:55.203Z,7.18
2023-03-22T05:30:02.155Z,7.30
2023-03-22T05:33:22.057Z,11.17
2023-03-22T05:36:29.706Z,10.15
2023-03-22T05:39:48.964Z,9.65
2023-03-22T05:42:52.219Z,8.48
2023-03-22T05:45:58.822Z,9.43
2023-03-22T05:49:14.311Z,8.68
2023-03-22T05:52:17.154Z,7.95
2023-03-22T05:55:32.000Z,7.97
2023-03-22T05:58:36.652Z,8.32
2023-03-22T06:01:39.542Z,8.20
2023-03-22T06:04:49.645Z,8.07
2023-03-22T06:07:52.389Z,7.55
2023-03-22T06:10:56.452Z,8.07
2023-03-22T06:13:58.755Z,7.57
2023-03-22T06:17:05.954Z,7.85
2023-03-22T06:20:11.927Z,7.90
2023-03-22T06:23:16.808Z,7.68
2023-03-22T06:26:21.349Z,7.80
2023-03-22T06:29:23.717Z,8.23
2023-03-22T06:32:28.929Z,7.90
2023-03-22T06:35:33.234Z,7.73
2023-03-22T06:38:35.661Z,7.45
2023-03-22T06:41:38.193Z,8.07
2023-03-22T06:44:43.855Z,8.30
2023-03-22T06:48:09.781Z,8.45
2023-03-22T06:51:32.337Z,7.72
2023-03-22T06:54:34.805Z,8.00
2023-03-22T06:57:37.034Z,7.73
2023-03-22T07:00:39.733Z,7.85
2023-03-22T07:03:43.264Z,6.95
2023-03-22T07:06:49.365Z,6.70
2023-03-22T07:09:53.879Z,5.97
2023-03-22T07:13:01.063Z,5.88
2023-03-22T07:16:03.748Z,6.90
2023-03-22T07:19:29.372Z,6.32
2023-03-22T07:22:33.340Z,7.00
2023-03-22T07:25:35.631Z,6.45
2023-03-22T07:28:53.624Z,5.30
2023-03-22T07:32:02.084Z,5.25
2023-03-22T07:35:17.001Z,5.38
2023-03-22T07:38:19.780Z,5.20
2023-03-22T07:41:24.034Z,4.75
2023-03-22T07:44:30.867Z,5.55
2023-03-22T07:47:53.233Z,4.85
2023-03-22T07:51:01.122Z,5.78
2023-03-22T07:54:03.427Z,5.78
2023-03-22T07:57:06.956Z,4.95
2023-03-22T08:00:13.842Z,4.80
2023-03-22T08:03:23.338Z,5.03
2023-03-22T08:06:37.309Z,4.75
2023-03-22T08:09:41.782Z,4.80
2023-03-22T08:12:46.517Z,4.72
2023-03-22T08:15:57.672Z,4.80
2023-03-22T08:19:00.412Z,5.30
2023-03-22T08:22:05.231Z,5.53
2023-03-22T08:25:33.483Z,5.03
2023-03-22T08:28:43.087Z,5.40
2023-03-22T08:31:49.783Z,4.87
2023-03-22T08:34:52.838Z,5.50
2023-03-22T08:37:56.387Z,5.55
2023-03-22T08:41:05.966Z,4.07
2023-03-22T08:44:09.672Z,5.53
2023-03-22T08:47:14.582Z,5.10
2023-03-22T08:50:20.343Z,5.45
2023-03-22T08:53:31.444Z,5.38
2023-03-22T08:56:54.052Z,5.68
2023-03-22T09:00:11.107Z,5.63
2023-03-22T09:03:21.597Z,4.97
2023-03-22T09:06:26.214Z,5.93
2023-03-22T09:09:28.444Z,6.00
2023-03-22T09:12:32.175Z,5.67
2023-03-22T09:15:36.645Z,5.47
2023-03-22T09:18:54.371Z,5.25
2023-03-22T09:21:57.800Z,5.40
2023-03-22T09:25:10.356Z,4.40
2023-03-22T09:28:14.163Z,5.05
2023-03-22T09:31:20.345Z,5.32
2023-03-22T09:34:27.099Z,4.77
2023-03-22T09:37:30.599Z,4.80
2023-03-22T09:40:37.686Z,5.03
2023-03-22T09:43:43.356Z,5.47
2023-03-22T09:46:52.986Z,4.82
2023-03-22T09:50:04.596Z,5.72
2023-03-22T09:53:13.686Z,5.50
2023-03-22T09:56:34.229Z,5.85
2023-03-22T10:00:02.200Z,5.03
2023-03-22T10:03:38.355Z,5.60
2023-03-22T10:06:43.010Z,5.60
2023-03-22T10:09:50.572Z,5.90
2023-03-22T10:13:07.753Z,6.18
2023-03-22T10:16:21.576Z,5.23
2023-03-22T10:19:27.620Z,5.68
2023-03-22T10:22:37.016Z,5.13
2023-03-22T10:25:40.825Z,5.28
2023-03-22T10:28:45.200Z,5.07
2023-03-22T10:31:47.411Z,5.75
2023-03-22T10:34:49.670Z,5.60
2023-03-22T10:37:56.488Z,5.10
2023-03-22T10:40:59.437Z,5.20
2023-03-22T10:44:06.132Z,5.22
2023-03-22T10:47:11.419Z,5.37
2023-03-22T10:50:18.595Z,5.25
2023-03-22T10:53:27.121Z,5.13
2023-03-22T10:56:31.111Z,5.40
2023-03-22T10:59:49.130Z,5.82
2023-03-22T11:02:58.490Z,5.75
2023-03-22T11:06:11.771Z,5.60
2023-03-22T11:09:17.971Z,5.53
2023-03-22T11:12:21.311Z,5.40
2023-03-22T11:15:40.469Z,5.20
2023-03-22T11:18:43.535Z,5.30
2023-03-22T11:21:46.077Z,5.80
2023-03-22T11:24:48.563Z,5.45
2023-03-22T11:28:29.249Z,5.20
2023-03-22T11:31:55.155Z,5.65
2023-03-22T11:35:23.800Z,6.38
2023-03-22T11:38:36.762Z,6.22
2023-03-22T11:41:40.322Z,6.07
2023-03-22T11:44:44.417Z,5.78
2023-03-22T11:47:46.834Z,6.03
2023-03-22T11:50:52.963Z,6.30
2023-03-22T11:54:24.992Z,5.60
2023-03-22T11:57:30.832Z,6.40
2023-03-22T12:00:37.621Z,5.93
2023-03-22T12:03:44.535Z,6.15
2023-03-22T12:06:53.281Z,6.10
2023-03-22T12:10:11.489Z,6.45
2023-03-22T12:13:29.847Z,6.10
2023-03-22T12:16:40.139Z,6.80
2023-03-22T12:19:50.228Z,6.32
2023-03-22T12:22:54.478Z,6.03
2023-03-22T12:26:12.731Z,7.03
2023-03-22T12:29:19.399Z,6.40
2023-03-22T12:32:31.173Z,7.38
2023-03-22T12:35:35.634Z,6.25
2023-03-22T12:38:41.376Z,6.25
2023-03-22T12:41:49.617Z,6.30
2023-03-22T12:45:04.743Z,5.97
2023-03-22T12:48:16.791Z,5.50
2023-03-22T12:51:19.157Z,5.63
2023-03-22T12:54:25.023Z,5.37
2023-03-22T12:57:27.813Z,5.40
2023-03-22T13:00:53.875Z,5.38
2023-03-22T13:03:57.740Z,5.13
2023-03-22T13:07:13.665Z,5.00
2023-03-22T13:10:39.472Z,4.93
2023-03-22T13:13:44.488Z,4.90
2023-03-22T13:16:56.219Z,4.73
2023-03-22T13:20:00.740Z,4.60
2023-03-22T13:23:04.721Z,4.30
2023-03-22T13:26:15.029Z,4.73
2023-03-22T13:29:20.090Z,5.25
2023-03-22T13:32:33.461Z,4.15
2023-03-22T13:35:48.866Z,3.80
2023-03-22T13:38:56.599Z,3.63
2023-03-22T13:42:17.670Z,3.22
2023-03-22T13:45:33.640Z,3.47
2023-03-22T13:48:48.803Z,2.93
2023-03-22T13:51:51.509Z,3.33
2023-03-22T13:54:57.220Z,2.88
2023-03-22T13:58:00.137Z,3.57
2023-03-22T14:01:16.707Z,3.20
2023-03-22T14:04:37.428Z,3.20
2023-03-22T14:07:48.143Z,2.75
2023-03-22T14:10:58.532Z,3.03
2023-03-22T14:14:05.467Z,3.40
2023-03-22T14:17:13.800Z,2.80
2023-03-22T14:20:20.140Z,3.00
